Spencer, WI (54479)

11:17 PM CST on February 09, 2016 (GMT -0600)
Marshfield Municipal | | Change Station
CLOSE
Current Station
Airport
Location: Marshfield,
Elevation: 1276 ft
Nearby Weather Stations

Elev 1276 ft 44.64 °N, 90.19 °W | Updated 23 minutes ago

Overcast
Overcast
10 °F
Feels Like -4 °F
N
12
Wind Variable Wind from North

Today
High -- | Low -- °F
--% Chance of Precip.
Yesterday
High -- | Low -- °F
Precip. -- in
Pressure 30.06 in
Visibility 10.0 miles
Clouds Overcast 2900 ft
Windchill -4 °F
Dew Point -2 °F
Humidity 58%
Rainfall 0.00 in
Snow Depth Not available.
7:10 AM 5:20 PM
Waxing Crescent, 4% visible
METAR KMFI 100454Z AUTO 35010KT 10SM OVC029 M12/M19 A2997 RMK AO2 SLP178 T11221189
Pressure 30.06 in
Visibility 10.0 miles
Clouds Overcast 2900 ft
Windchill -4 °F
Dew Point -2 °F
Humidity 58%
Rainfall 0.00 in
Snow Depth Not available.
7:10 AM 5:20 PM
Waxing Crescent, 4% visible
METAR KMFI 100454Z AUTO 35010KT 10SM OVC029 M12/M19 A2997 RMK AO2 SLP178 T11221189

10-Day Weather Forecast

Almanac

Astronomy

Feb. 09, 2016 Rise Set
Actual Time
Civil Twilight
Nautical Twilight
Astronomical Twilight
Moon
Length of Visible Light
Length of Day
Tomorrow will be .
, % of the Moon is Illuminated

Today's Extremes

State Highs State Lows

Community

WunderPhotos

Upload Photos

1,891,818 photos uploaded!

WunderBlog® & News

Nearby

Air Quality

  Air Quality AQ Index Pollutant
Not available.

Snow Depth

Station Depth Elevation

Earthquake Activity

City Distance Mag. Time & Date
Minimum magnitude displayed is 2.5.

Coastal Water Temperatures

Place Temperature

Stations

Nearby Weather Stations

Station Location Temp. Windchill Dew Point Humidity Wind Precip. Elev Updated Type
                   

Watches & Warnings

There are currently no watches in effect.